Airport View

Enter AWOS ICAO identifier for current METAR.

ex. KFNL

KFLL 221753Z 08014KT 10SM SCT027 SCT110 SCT220 32/24 A2999 RMK AO2 SLP156 T03170239 10328 20272 58016

22 Jul 2019 18:20

Phone: 954-359-7857

Other Area AWOS: KHWO - KFXE - KPMP - KOPF

TAF KFLL 221720Z 2218/2324 08010KT P6SM SCT030 BKN120 FM230100 14006KT P6SM VCSH SCT030 BKN120 FM230700 23005KT P6SM VCSH SCT025 BKN100 FM231400 23008KT P6SM VCSH SCT025 BKN100 FM231700 20010KT P6SM VCSH SCT025 SCT060 BKN250